sim
Sign-in with your pilot id or email,
or register
Callsign
Passwort

Schedule Details

Flight Number: DLH2199 (2)
Departure: Cologne Bonn Airport (EDDK) at 13:40
Arrival: Munich Airport (EDDM) at 14:45
Route: Lufthansa Passenger Schedule. Enter filed route here before submitting Pirep.

Weather Information
Getting current METAR information for EDDK 241120Z 20015KT 9999 FEW043 18/06 Q1005 NOSIG
Getting current METAR information for EDDM 241120Z 22005KT 130V250 9999 FEW033 20/13 Q1010 NOSIG

Schedule Frequency

Route Map